Impacts TAF Board
For situational awareness. Not to be used for flight planning purposes.
IDs:

KELP - El Paso Intl, TX, US

Issued at 1736 UTC 02 Aug 2021
Updated at 2214 UTC 02 Aug 2021
Potential Impact None Slight Moderate High
Time2151Z 02/23Z 03/00Z 03/01Z 03/02Z 03/03Z 03/04Z 03/05Z 03/06Z 03/07Z 03/08Z 03/09Z 03/10Z 03/11Z>>
Type OBS PRVL PRVL PRVL PRVL PRVL PRVL PRVL PRVL PRVL PRVL PRVL PRVL PRVL
VIS 10 >6 >6 >6 >6 >6 >6 >6 >6 >6 >6 >6 >6 >6
CIG 250 140 140 140 200 200 200 200 200 200 200 200 200 200
Cover BKN OVC OVC OVC BKN BKN BKN BKN BKN BKN BKN BKN BKN BKN
FltCat VFR VFR VFR VFR VFR VFR VFR VFR VFR VFR VFR VFR VFR VFR
WX -- VCTS VCTS VCTS -- -- -- -- -- -- -- -- -- --
WDir VRB 100 100 100 130 130 130 130 130 130 130 130 130 130
WSpd 5 8 8 8 10 10 10 10 10 10 10 10 10 10
WGst -- 18 18 18 -- -- -- -- -- -- -- -- -- --
Raw TAF
KELP 021736Z 0218/0318 08010KT P6SM FEW080 SCT130 BKN220
  FM022200 10008G18KT P6SM VCTS SCT080CB BKN140 OVC220
  FM030200 13010KT P6SM BKN200


Raw METAR
KELP 022151Z VRB05KT 10SM SCT065 BKN250 30/14 A3016 RMK AO2 SLP138 CB DSNT N AND NW T03000144
KELP 022051Z 09006KT 10SM BKN065 BKN250 31/14 A3018 RMK AO2 SLP143 T03060144 58021
KELP 021951Z 09007KT 10SM BKN060 BKN250 31/15 A3020 RMK AO2 SLP152 T03060150

METAR Board
Radar Display
Forecast Discussion
For situational awareness. Not to be used for flight planning purposes.